sensor_id;sensor_type;location;lat;lon;timestamp;pressure;altitude;pressure_sealevel;temperature;humidity
3796;BME280;1913;50.660;7.834;2023-05-25T00:02:19;149302.88;;;5.07;100.00
3796;BME280;1913;50.660;7.834;2023-05-25T00:04:49;149316.66;;;5.13;100.00
3796;BME280;1913;50.660;7.834;2023-05-25T00:07:15;149344.19;;;5.24;100.00
3796;BME280;1913;50.660;7.834;2023-05-25T00:09:41;149340.41;;;5.22;100.00
3796;BME280;1913;50.660;7.834;2023-05-25T00:12:08;149342.94;;;5.23;100.00
3796;BME280;1913;50.660;7.834;2023-05-25T00:14:34;149346.69;;;5.25;100.00
3796;BME280;1913;50.660;7.834;2023-05-25T00:16:59;149326.66;;;5.17;100.00
3796;BME280;1913;50.660;7.834;2023-05-25T00:19:28;149297.84;;;5.05;100.00
3796;BME280;1913;50.660;7.834;2023-05-25T00:21:57;149286.59;;;5.00;100.00
3796;BME280;1913;50.660;7.834;2023-05-25T00:24:27;149245.28;;;4.84;100.00
3796;BME280;1913;50.660;7.834;2023-05-25T00:26:52;149237.81;;;4.80;100.00
3796;BME280;1913;50.660;7.834;2023-05-25T00:29:18;149212.78;;;4.70;100.00
3796;BME280;1913;50.660;7.834;2023-05-25T00:31:43;149206.53;;;4.68;100.00
3796;BME280;1913;50.660;7.834;2023-05-25T00:34:09;149192.72;;;4.62;100.00
3796;BME280;1913;50.660;7.834;2023-05-25T00:36:34;149197.75;;;4.64;100.00
3796;BME280;1913;50.660;7.834;2023-05-25T00:38:59;149194.03;;;4.63;100.00
3796;BME280;1913;50.660;7.834;2023-05-25T00:41:26;149181.50;;;4.57;100.00
3796;BME280;1913;50.660;7.834;2023-05-25T00:43:52;149190.25;;;4.61;100.00
3796;BME280;1913;50.660;7.834;2023-05-25T00:46:18;149181.50;;;4.57;100.00
3796;BME280;1913;50.660;7.834;2023-05-25T00:48:44;149172.72;;;4.54;100.00
3796;BME280;1913;50.660;7.834;2023-05-25T00:51:10;149210.25;;;4.69;100.00
3796;BME280;1913;50.660;7.834;2023-05-25T00:53:37;149241.56;;;4.82;100.00
3796;BME280;1913;50.660;7.834;2023-05-25T00:56:14;149266.59;;;4.92;100.00
3796;BME280;1913;50.660;7.834;2023-05-25T00:58:43;149269.09;;;4.93;100.00
3796;BME280;1913;50.660;7.834;2023-05-25T01:01:14;149262.81;;;4.91;100.00
3796;BME280;1913;50.660;7.834;2023-05-25T01:03:41;149249.06;;;4.85;100.00
3796;BME280;1913;50.660;7.834;2023-05-25T01:06:14;149226.53;;;4.76;100.00
3796;BME280;1913;50.660;7.834;2023-05-25T01:08:45;149194.03;;;4.63;100.00
3796;BME280;1913;50.660;7.834;2023-05-25T01:11:13;149173.97;;;4.54;100.00
3796;BME280;1913;50.660;7.834;2023-05-25T01:13:39;149162.72;;;4.50;100.00
3796;BME280;1913;50.660;7.834;2023-05-25T01:16:06;149123.97;;;4.34;100.00
3796;BME280;1913;50.660;7.834;2023-05-25T01:18:33;149151.47;;;4.45;100.00
3796;BME280;1913;50.660;7.834;2023-05-25T01:21:07;149190.25;;;4.61;100.00
3796;BME280;1913;50.660;7.834;2023-05-25T01:23:42;149216.53;;;4.72;100.00
3796;BME280;1913;50.660;7.834;2023-05-25T01:26:14;149244.03;;;4.83;100.00
3796;BME280;1913;50.660;7.834;2023-05-25T01:28:44;149250.31;;;4.86;100.00
3796;BME280;1913;50.660;7.834;2023-05-25T01:31:12;149256.59;;;4.88;100.00
3796;BME280;1913;50.660;7.834;2023-05-25T01:33:41;149202.78;;;4.66;100.00
3796;BME280;1913;50.660;7.834;2023-05-25T01:36:08;149187.75;;;4.60;100.00
3796;BME280;1913;50.660;7.834;2023-05-25T01:38:34;149187.75;;;4.60;100.00
3796;BME280;1913;50.660;7.834;2023-05-25T01:41:01;149196.50;;;4.64;100.00
3796;BME280;1913;50.660;7.834;2023-05-25T01:43:26;149199.00;;;4.65;100.00
3796;BME280;1913;50.660;7.834;2023-05-25T01:45:57;149183.97;;;4.59;100.00
3796;BME280;1913;50.660;7.834;2023-05-25T01:48:41;149162.72;;;4.50;100.00
3796;BME280;1913;50.660;7.834;2023-05-25T01:51:18;149141.47;;;4.41;100.00
3796;BME280;1913;50.660;7.834;2023-05-25T01:53:57;149131.44;;;4.37;100.00
3796;BME280;1913;50.660;7.834;2023-05-25T01:56:26;149123.97;;;4.34;100.00
3796;BME280;1913;50.660;7.834;2023-05-25T01:58:54;149122.69;;;4.33;100.00
3796;BME280;1913;50.660;7.834;2023-05-25T02:01:23;149117.69;;;4.31;100.00
3796;BME280;1913;50.660;7.834;2023-05-25T02:03:49;149101.44;;;4.25;100.00
3796;BME280;1913;50.660;7.834;2023-05-25T02:06:15;149097.69;;;4.23;100.00
3796;BME280;1913;50.660;7.834;2023-05-25T02:08:41;149075.16;;;4.14;100.00
3796;BME280;1913;50.660;7.834;2023-05-25T02:11:08;149056.41;;;4.06;100.00
3796;BME280;1913;50.660;7.834;2023-05-25T02:13:33;149035.13;;;3.98;100.00
3796;BME280;1913;50.660;7.834;2023-05-25T02:15:58;149020.16;;;3.92;100.00
3796;BME280;1913;50.660;7.834;2023-05-25T02:18:24;149000.13;;;3.83;100.00
3796;BME280;1913;50.660;7.834;2023-05-25T02:20:50;148991.34;;;3.80;100.00
3796;BME280;1913;50.660;7.834;2023-05-25T02:23:15;148978.88;;;3.75;100.00
3796;BME280;1913;50.660;7.834;2023-05-25T02:25:43;148957.59;;;3.66;100.00
3796;BME280;1913;50.660;7.834;2023-05-25T02:28:08;148937.59;;;3.58;100.00
3796;BME280;1913;50.660;7.834;2023-05-25T02:30:33;148923.88;;;3.52;100.00
3796;BME280;1913;50.660;7.834;2023-05-25T02:32:59;148887.59;;;3.38;100.00
3796;BME280;1913;50.660;7.834;2023-05-25T02:35:26;148926.38;;;3.53;100.00
3796;BME280;1913;50.660;7.834;2023-05-25T02:37:52;148911.34;;;3.47;100.00
3796;BME280;1913;50.660;7.834;2023-05-25T02:40:17;148916.38;;;3.49;100.00
3796;BME280;1913;50.660;7.834;2023-05-25T02:42:43;148907.63;;;3.46;100.00
3796;BME280;1913;50.660;7.834;2023-05-25T02:45:09;148890.13;;;3.39;100.00
3796;BME280;1913;50.660;7.834;2023-05-25T02:47:35;148883.84;;;3.36;100.00
3796;BME280;1913;50.660;7.834;2023-05-25T02:50:00;148877.59;;;3.33;100.00
3796;BME280;1913;50.660;7.834;2023-05-25T02:52:26;148887.59;;;3.38;100.00
3796;BME280;1913;50.660;7.834;2023-05-25T02:54:51;148880.13;;;3.34;100.00
3796;BME280;1913;50.660;7.834;2023-05-25T02:57:17;148862.63;;;3.27;100.00
3796;BME280;1913;50.660;7.834;2023-05-25T02:59:42;148870.09;;;3.30;100.00
3796;BME280;1913;50.660;7.834;2023-05-25T03:02:07;148872.63;;;3.31;100.00
3796;BME280;1913;50.660;7.834;2023-05-25T03:04:33;148840.09;;;3.18;100.00
3796;BME280;1913;50.660;7.834;2023-05-25T03:07:01;148851.34;;;3.23;100.00
3796;BME280;1913;50.660;7.834;2023-05-25T03:09:27;148837.63;;;3.17;100.00
3796;BME280;1913;50.660;7.834;2023-05-25T03:11:55;148826.34;;;3.12;100.00
3796;BME280;1913;50.660;7.834;2023-05-25T03:14:21;148848.84;;;3.22;100.00
3796;BME280;1913;50.660;7.834;2023-05-25T03:16:47;148878.84;;;3.34;100.00
3796;BME280;1913;50.660;7.834;2023-05-25T03:19:12;148886.34;;;3.37;100.00
3796;BME280;1913;50.660;7.834;2023-05-25T03:21:37;148890.13;;;3.39;100.00
3796;BME280;1913;50.660;7.834;2023-05-25T03:24:03;148841.34;;;3.19;100.00
3796;BME280;1913;50.660;7.834;2023-05-25T03:26:29;148825.09;;;3.12;100.00
3796;BME280;1913;50.660;7.834;2023-05-25T03:28:54;148812.63;;;3.07;100.00
3796;BME280;1913;50.660;7.834;2023-05-25T03:31:21;148815.09;;;3.08;100.00
3796;BME280;1913;50.660;7.834;2023-05-25T03:33:47;148802.63;;;3.03;100.00
3796;BME280;1913;50.660;7.834;2023-05-25T03:36:12;148810.09;;;3.06;100.00
3796;BME280;1913;50.660;7.834;2023-05-25T03:38:42;148805.13;;;3.04;100.00
3796;BME280;1913;50.660;7.834;2023-05-25T03:41:07;148803.88;;;3.03;100.00
3796;BME280;1913;50.660;7.834;2023-05-25T03:43:32;148792.59;;;2.99;100.00
3796;BME280;1913;50.660;7.834;2023-05-25T03:45:58;148781.34;;;2.94;100.00
3796;BME280;1913;50.660;7.834;2023-05-25T03:48:23;148786.38;;;2.96;100.00
3796;BME280;1913;50.660;7.834;2023-05-25T03:50:49;148831.38;;;3.15;100.00
3796;BME280;1913;50.660;7.834;2023-05-25T03:53:14;148841.34;;;3.19;100.00
3796;BME280;1913;50.660;7.834;2023-05-25T03:55:40;148831.38;;;3.15;100.00
3796;BME280;1913;50.660;7.834;2023-05-25T03:58:06;148841.34;;;3.19;100.00
3796;BME280;1913;50.660;7.834;2023-05-25T04:00:34;148840.09;;;3.18;100.00
3796;BME280;1913;50.660;7.834;2023-05-25T04:03:00;148843.84;;;3.20;100.00
3796;BME280;1913;50.660;7.834;2023-05-25T04:05:25;148850.09;;;3.22;100.00
3796;BME280;1913;50.660;7.834;2023-05-25T04:07:50;148868.84;;;3.30;100.00
3796;BME280;1913;50.660;7.834;2023-05-25T04:10:16;148880.13;;;3.34;100.00
3796;BME280;1913;50.660;7.834;2023-05-25T04:12:41;148921.34;;;3.51;100.00
3796;BME280;1913;50.660;7.834;2023-05-25T04:15:07;148955.09;;;3.65;100.00
3796;BME280;1913;50.660;7.834;2023-05-25T04:17:34;148977.63;;;3.74;100.00
3796;BME280;1913;50.660;7.834;2023-05-25T04:20:01;149015.13;;;3.90;100.00
3796;BME280;1913;50.660;7.834;2023-05-25T04:22:27;149063.94;;;4.10;100.00
3796;BME280;1913;50.660;7.834;2023-05-25T04:24:52;149145.22;;;4.43;100.00
3796;BME280;1913;50.660;7.834;2023-05-25T04:27:18;149264.09;;;4.91;100.00
3796;BME280;1913;50.660;7.834;2023-05-25T04:29:45;149404.28;;;5.48;100.00
3796;BME280;1913;50.660;7.834;2023-05-25T04:32:10;149525.81;;;5.98;100.00
3796;BME280;1913;50.660;7.834;2023-05-25T04:34:39;149641.03;;;6.45;100.00
3796;BME280;1913;50.660;7.834;2023-05-25T04:37:06;149743.81;;;6.87;100.00
3796;BME280;1913;50.660;7.834;2023-05-25T04:39:33;149820.22;;;7.18;100.00
3796;BME280;1913;50.660;7.834;2023-05-25T04:41:58;149891.72;;;7.47;100.00
3796;BME280;1913;50.660;7.834;2023-05-25T04:44:31;149956.91;;;7.74;100.00
3796;BME280;1913;50.660;7.834;2023-05-25T04:46:57;150061.03;;;8.16;100.00
3796;BME280;1913;50.660;7.834;2023-05-25T04:49:24;150116.25;;;8.38;100.00
3796;BME280;1913;50.660;7.834;2023-05-25T04:51:51;150137.59;;;8.47;100.00
3796;BME280;1913;50.660;7.834;2023-05-25T04:54:16;150249.25;;;8.93;100.00
3796;BME280;1913;50.660;7.834;2023-05-25T04:56:42;150273.13;;;9.02;100.00
3796;BME280;1913;50.660;7.834;2023-05-25T04:59:07;150378.56;;;9.45;100.00
3796;BME280;1913;50.660;7.834;2023-05-25T05:01:33;150433.84;;;9.68;100.00
3796;BME280;1913;50.660;7.834;2023-05-25T05:03:58;150480.31;;;9.87;100.00
3796;BME280;1913;50.660;7.834;2023-05-25T05:06:24;150481.56;;;9.87;100.00
3796;BME280;1913;50.660;7.834;2023-05-25T05:08:50;150589.59;;;10.31;100.00
3796;BME280;1913;50.660;7.834;2023-05-25T05:11:15;150661.28;;;10.60;100.00
3796;BME280;1913;50.660;7.834;2023-05-25T05:13:41;150755.50;;;10.98;100.00
3796;BME280;1913;50.660;7.834;2023-05-25T05:16:06;150861.06;;;11.41;100.00
3796;BME280;1913;50.660;7.834;2023-05-25T05:18:32;150883.72;;;11.50;100.00
3796;BME280;1913;50.660;7.834;2023-05-25T05:20:57;150857.31;;;11.40;100.00
3796;BME280;1913;50.660;7.834;2023-05-25T05:23:22;150882.47;;;11.50;100.00
3796;BME280;1913;50.660;7.834;2023-05-25T05:25:48;150873.69;;;11.46;100.00
3796;BME280;1913;50.660;7.834;2023-05-25T05:28:13;151008.28;;;12.01;100.00
3796;BME280;1913;50.660;7.834;2023-05-25T05:30:39;150996.97;;;11.96;100.00
3796;BME280;1913;50.660;7.834;2023-05-25T05:33:05;150990.66;;;11.94;100.00
3796;BME280;1913;50.660;7.834;2023-05-25T05:35:30;151034.69;;;12.12;100.00
3796;BME280;1913;50.660;7.834;2023-05-25T05:37:55;151127.78;;;12.50;100.00
3796;BME280;1913;50.660;7.834;2023-05-25T05:40:21;151064.91;;;12.24;100.00
3796;BME280;1913;50.660;7.834;2023-05-25T05:42:47;151147.91;;;12.58;100.00
3796;BME280;1913;50.660;7.834;2023-05-25T05:45:12;151253.63;;;13.01;100.00
3796;BME280;1913;50.660;7.834;2023-05-25T05:47:37;151418.59;;;13.68;100.00
3796;BME280;1913;50.660;7.834;2023-05-25T05:50:03;151570.97;;;14.29;100.00
3796;BME280;1913;50.660;7.834;2023-05-25T05:52:29;151715.91;;;14.88;100.00
3796;BME280;1913;50.660;7.834;2023-05-25T05:54:54;151768.84;;;15.09;100.00
3796;BME280;1913;50.660;7.834;2023-05-25T05:57:20;151770.09;;;15.10;100.00
3796;BME280;1913;50.660;7.834;2023-05-25T05:59:46;151820.53;;;15.30;100.00
3796;BME280;1913;50.660;7.834;2023-05-25T06:02:11;151907.56;;;15.66;100.00
3796;BME280;1913;50.660;7.834;2023-05-25T06:04:36;152036.16;;;16.18;100.00
3796;BME280;1913;50.660;7.834;2023-05-25T06:07:02;152109.34;;;16.47;100.00
3796;BME280;1913;50.660;7.834;2023-05-25T06:09:28;152173.66;;;16.73;98.87
3796;BME280;1913;50.660;7.834;2023-05-25T06:11:53;152373.13;;;17.54;93.79
3796;BME280;1913;50.660;7.834;2023-05-25T06:14:18;152479.22;;;17.97;88.69
3796;BME280;1913;50.660;7.834;2023-05-25T06:16:44;152477.94;;;17.97;80.80
3796;BME280;1913;50.660;7.834;2023-05-25T06:19:09;152466.56;;;17.92;81.77
3796;BME280;1913;50.660;7.834;2023-05-25T06:21:35;152642.09;;;18.63;81.80
3796;BME280;1913;50.660;7.834;2023-05-25T06:24:02;152691.41;;;18.83;81.80
3796;BME280;1913;50.660;7.834;2023-05-25T06:26:27;152706.59;;;18.89;73.57
3796;BME280;1913;50.660;7.834;2023-05-25T06:28:53;152807.66;;;19.30;72.52
3796;BME280;1913;50.660;7.834;2023-05-25T06:31:18;152580.19;;;18.38;75.96
3796;BME280;1913;50.660;7.834;2023-05-25T06:33:43;152739.41;;;19.02;72.37
3796;BME280;1913;50.660;7.834;2023-05-25T06:36:09;152755.84;;;19.09;68.77
3796;BME280;1913;50.660;7.834;2023-05-25T06:38:35;152805.13;;;19.29;69.76
3796;BME280;1913;50.660;7.834;2023-05-25T06:41:00;152898.66;;;19.67;64.13
3796;BME280;1913;50.660;7.834;2023-05-25T06:43:28;152961.91;;;19.92;65.20
3796;BME280;1913;50.660;7.834;2023-05-25T06:45:53;152959.34;;;19.91;63.90
3796;BME280;1913;50.660;7.834;2023-05-25T06:48:19;152911.31;;;19.72;59.71
3796;BME280;1913;50.660;7.834;2023-05-25T06:50:45;153004.84;;;20.09;60.51
3796;BME280;1913;50.660;7.834;2023-05-25T06:53:10;152984.63;;;20.01;59.98
3796;BME280;1913;50.660;7.834;2023-05-25T06:55:36;152983.38;;;20.01;59.44
3796;BME280;1913;50.660;7.834;2023-05-25T06:58:01;152997.28;;;20.06;60.60
3796;BME280;1913;50.660;7.834;2023-05-25T07:00:27;153118.69;;;20.55;60.93
3796;BME280;1913;50.660;7.834;2023-05-25T07:02:52;153133.88;;;20.62;56.08
3796;BME280;1913;50.660;7.834;2023-05-25T07:05:18;153121.25;;;20.56;57.06
3796;BME280;1913;50.660;7.834;2023-05-25T07:07:43;153054.16;;;20.29;56.09
3796;BME280;1913;50.660;7.834;2023-05-25T07:10:08;153083.22;;;20.41;58.40
3796;BME280;1913;50.660;7.834;2023-05-25T07:12:34;153078.19;;;20.39;55.75
3796;BME280;1913;50.660;7.834;2023-05-25T07:14:59;153081.97;;;20.41;54.55
3796;BME280;1913;50.660;7.834;2023-05-25T07:17:25;152992.22;;;20.04;58.10
3796;BME280;1913;50.660;7.834;2023-05-25T07:19:50;153044.06;;;20.25;53.21
3796;BME280;1913;50.660;7.834;2023-05-25T07:22:16;153106.06;;;20.50;54.26
3796;BME280;1913;50.660;7.834;2023-05-25T07:24:44;153164.19;;;20.74;55.22
3796;BME280;1913;50.660;7.834;2023-05-25T07:27:10;153151.56;;;20.69;51.00
3796;BME280;1913;50.660;7.834;2023-05-25T07:29:37;153202.19;;;20.89;51.74
3796;BME280;1913;50.660;7.834;2023-05-25T07:32:02;153235.06;;;21.02;52.00
3796;BME280;1913;50.660;7.834;2023-05-25T07:34:28;153075.63;;;20.38;52.35
3796;BME280;1913;50.660;7.834;2023-05-25T07:36:53;153063.00;;;20.33;51.70
3796;BME280;1913;50.660;7.834;2023-05-25T07:39:18;153098.41;;;20.47;49.42
3796;BME280;1913;50.660;7.834;2023-05-25T07:41:44;153055.41;;;20.30;50.68
3796;BME280;1913;50.660;7.834;2023-05-25T07:44:09;153049.09;;;20.27;49.32
3796;BME280;1913;50.660;7.834;2023-05-25T07:46:35;152896.16;;;19.66;50.54
3796;BME280;1913;50.660;7.834;2023-05-25T07:49:00;152848.09;;;19.46;49.26
3796;BME280;1913;50.660;7.834;2023-05-25T07:51:29;152877.16;;;19.58;49.76
3796;BME280;1913;50.660;7.834;2023-05-25T07:53:55;152856.94;;;19.50;49.49
3796;BME280;1913;50.660;7.834;2023-05-25T07:56:21;152830.41;;;19.39;52.54
3796;BME280;1913;50.660;7.834;2023-05-25T07:58:48;152736.88;;;19.01;53.83
3796;BME280;1913;50.660;7.834;2023-05-25T08:01:13;152874.63;;;19.57;48.79
3796;BME280;1913;50.660;7.834;2023-05-25T08:03:39;152888.56;;;19.63;43.89
3796;BME280;1913;50.660;7.834;2023-05-25T08:06:05;153016.25;;;20.14;45.32
3796;BME280;1913;50.660;7.834;2023-05-25T08:08:30;152951.75;;;19.88;44.08
3796;BME280;1913;50.660;7.834;2023-05-25T08:10:56;153027.63;;;20.19;46.04
3796;BME280;1913;50.660;7.834;2023-05-25T08:13:21;153174.34;;;20.78;45.80
3796;BME280;1913;50.660;7.834;2023-05-25T08:15:47;153073.13;;;20.37;44.52
3796;BME280;1913;50.660;7.834;2023-05-25T08:18:14;153194.59;;;20.86;47.12
3796;BME280;1913;50.660;7.834;2023-05-25T08:20:40;153326.19;;;21.39;44.18
3796;BME280;1913;50.660;7.834;2023-05-25T08:23:06;153412.22;;;21.74;44.98
3796;BME280;1913;50.660;7.834;2023-05-25T08:25:31;153283.13;;;21.22;43.82
3796;BME280;1913;50.660;7.834;2023-05-25T08:27:56;153429.94;;;21.81;42.75
3796;BME280;1913;50.660;7.834;2023-05-25T08:30:22;153394.53;;;21.67;42.58
3796;BME280;1913;50.660;7.834;2023-05-25T08:32:47;153173.06;;;20.77;43.01
3796;BME280;1913;50.660;7.834;2023-05-25T08:35:13;153154.09;;;20.70;44.98
3796;BME280;1913;50.660;7.834;2023-05-25T08:37:38;153047.81;;;20.27;45.32
3796;BME280;1913;50.660;7.834;2023-05-25T08:40:06;152985.88;;;20.02;44.59
3796;BME280;1913;50.660;7.834;2023-05-25T08:42:32;153022.53;;;20.17;45.99
3796;BME280;1913;50.660;7.834;2023-05-25T08:44:58;153102.19;;;20.49;46.06
3796;BME280;1913;50.660;7.834;2023-05-25T08:47:23;153166.75;;;20.75;44.16
3796;BME280;1913;50.660;7.834;2023-05-25T08:49:51;153366.66;;;21.56;45.32
3796;BME280;1913;50.660;7.834;2023-05-25T08:52:21;153455.22;;;21.91;42.40
3796;BME280;1913;50.660;7.834;2023-05-25T08:54:50;153566.66;;;22.36;42.01
3796;BME280;1913;50.660;7.834;2023-05-25T08:57:39;153551.47;;;22.30;40.36
3796;BME280;1913;50.660;7.834;2023-05-25T09:00:08;153495.75;;;22.08;40.56
3796;BME280;1913;50.660;7.834;2023-05-25T09:05:04;153538.81;;;22.25;41.39
3796;BME280;1913;50.660;7.834;2023-05-25T09:07:30;153524.88;;;22.19;41.13
3796;BME280;1913;50.660;7.834;2023-05-25T09:09:56;153545.16;;;22.28;40.07
3796;BME280;1913;50.660;7.834;2023-05-25T09:12:23;153605.94;;;22.52;40.43
3796;BME280;1913;50.660;7.834;2023-05-25T09:14:48;153543.91;;;22.27;39.89
3796;BME280;1913;50.660;7.834;2023-05-25T09:17:16;153709.75;;;22.94;40.24
3796;BME280;1913;50.660;7.834;2023-05-25T09:19:42;153633.78;;;22.63;38.10
3796;BME280;1913;50.660;7.834;2023-05-25T09:22:08;153822.47;;;23.39;39.50
3796;BME280;1913;50.660;7.834;2023-05-25T09:24:35;153831.34;;;23.43;37.70
3796;BME280;1913;50.660;7.834;2023-05-25T09:27:01;153889.63;;;23.66;38.03
3796;BME280;1913;50.660;7.834;2023-05-25T09:29:28;153624.91;;;22.60;36.45
3796;BME280;1913;50.660;7.834;2023-05-25T09:31:55;153595.75;;;22.48;36.20
3796;BME280;1913;50.660;7.834;2023-05-25T09:34:20;153619.84;;;22.58;36.79
3796;BME280;1913;50.660;7.834;2023-05-25T09:36:46;153645.16;;;22.68;36.59
3796;BME280;1913;50.660;7.834;2023-05-25T09:39:11;153760.44;;;23.14;35.90
3796;BME280;1913;50.660;7.834;2023-05-25T09:41:39;153650.25;;;22.70;34.47
3796;BME280;1913;50.660;7.834;2023-05-25T09:44:05;153685.69;;;22.84;35.89
3796;BME280;1913;50.660;7.834;2023-05-25T09:46:32;153925.16;;;23.81;36.42
3796;BME280;1913;50.660;7.834;2023-05-25T09:49:02;153871.91;;;23.59;35.15
3796;BME280;1913;50.660;7.834;2023-05-25T09:51:29;153921.31;;;23.79;36.59
3796;BME280;1913;50.660;7.834;2023-05-25T09:53:59;154008.75;;;24.14;35.27
3796;BME280;1913;50.660;7.834;2023-05-25T09:56:26;153972.00;;;24.00;34.52
3796;BME280;1913;50.660;7.834;2023-05-25T09:58:52;153928.94;;;23.82;35.17
3796;BME280;1913;50.660;7.834;2023-05-25T10:01:17;154087.38;;;24.46;35.43
3796;BME280;1913;50.660;7.834;2023-05-25T10:03:46;153999.88;;;24.11;34.06
3796;BME280;1913;50.660;7.834;2023-05-25T10:06:13;154087.38;;;24.46;35.08
3796;BME280;1913;50.660;7.834;2023-05-25T10:08:42;154091.19;;;24.48;35.80
3796;BME280;1913;50.660;7.834;2023-05-25T10:11:09;154102.59;;;24.52;36.73
3796;BME280;1913;50.660;7.834;2023-05-25T10:13:36;153935.28;;;23.85;35.37
3796;BME280;1913;50.660;7.834;2023-05-25T10:16:03;153993.59;;;24.08;34.60
3796;BME280;1913;50.660;7.834;2023-05-25T10:18:31;154020.19;;;24.19;36.30
3796;BME280;1913;50.660;7.834;2023-05-25T10:21:02;154088.63;;;24.47;35.07
3796;BME280;1913;50.660;7.834;2023-05-25T10:23:41;154240.72;;;25.08;36.58
3796;BME280;1913;50.660;7.834;2023-05-25T10:26:11;154294.06;;;25.29;34.29
3796;BME280;1913;50.660;7.834;2023-05-25T10:28:38;154235.69;;;25.06;34.43
3796;BME280;1913;50.660;7.834;2023-05-25T10:31:05;154347.31;;;25.51;34.16
3796;BME280;1913;50.660;7.834;2023-05-25T10:33:31;154390.38;;;25.68;33.22
3796;BME280;1913;50.660;7.834;2023-05-25T10:35:58;154499.53;;;26.12;33.65
3796;BME280;1913;50.660;7.834;2023-05-25T10:38:29;154475.41;;;26.02;32.50
3796;BME280;1913;50.660;7.834;2023-05-25T10:40:57;154532.53;;;26.25;32.09
3796;BME280;1913;50.660;7.834;2023-05-25T10:43:23;154457.66;;;25.95;32.11
3796;BME280;1913;50.660;7.834;2023-05-25T10:45:50;154561.69;;;26.37;31.10
3796;BME280;1913;50.660;7.834;2023-05-25T10:48:16;154587.13;;;26.47;30.90
3796;BME280;1913;50.660;7.834;2023-05-25T10:50:41;154646.72;;;26.71;30.20
3796;BME280;1913;50.660;7.834;2023-05-25T10:53:11;154785.09;;;27.27;30.59
3796;BME280;1913;50.660;7.834;2023-05-25T10:58:14;154494.44;;;26.10;31.26
3796;BME280;1913;50.660;7.834;2023-05-25T11:00:42;154636.56;;;26.67;32.38
3796;BME280;1913;50.660;7.834;2023-05-25T11:03:09;154630.25;;;26.65;31.13
3796;BME280;1913;50.660;7.834;2023-05-25T11:05:36;154654.31;;;26.74;31.87
3796;BME280;1913;50.660;7.834;2023-05-25T11:08:09;154687.34;;;26.88;30.97
3796;BME280;1913;50.660;7.834;2023-05-25T11:13:38;154799.06;;;27.33;29.44
3796;BME280;1913;50.660;7.834;2023-05-25T11:18:40;154791.44;;;27.30;30.95
3796;BME280;1913;50.660;7.834;2023-05-25T11:26:21;154741.88;;;27.10;29.99
3796;BME280;1913;50.660;7.834;2023-05-25T11:28:47;154825.72;;;27.43;31.12
3796;BME280;1913;50.660;7.834;2023-05-25T11:31:12;154710.19;;;26.97;29.57
3796;BME280;1913;50.660;7.834;2023-05-25T11:33:38;154768.59;;;27.20;29.69
3796;BME280;1913;50.660;7.834;2023-05-25T11:36:06;154819.38;;;27.41;29.51
3796;BME280;1913;50.660;7.834;2023-05-25T11:38:32;154833.34;;;27.47;29.43
3796;BME280;1913;50.660;7.834;2023-05-25T11:40:57;154827.00;;;27.44;29.50
3796;BME280;1913;50.660;7.834;2023-05-25T11:43:24;154969.22;;;28.01;29.23
3796;BME280;1913;50.660;7.834;2023-05-25T11:45:56;154927.31;;;27.84;28.74
3796;BME280;1913;50.660;7.834;2023-05-25T11:48:21;154748.28;;;27.12;28.03
3796;BME280;1913;50.660;7.834;2023-05-25T11:51:03;154673.34;;;26.82;29.43
3796;BME280;1913;50.660;7.834;2023-05-25T11:53:28;154749.56;;;27.13;29.25
3796;BME280;1913;50.660;7.834;2023-05-25T11:55:54;154721.59;;;27.02;30.63
3796;BME280;1913;50.660;7.834;2023-05-25T11:58:19;154792.72;;;27.30;28.91
3796;BME280;1913;50.660;7.834;2023-05-25T12:00:45;154839.66;;;27.49;28.62
3796;BME280;1913;50.660;7.834;2023-05-25T12:03:29;155035.22;;;28.28;28.28
3796;BME280;1913;50.660;7.834;2023-05-25T12:05:55;155039.06;;;28.29;28.15
3796;BME280;1913;50.660;7.834;2023-05-25T12:08:39;154992.03;;;28.10;27.22
3796;BME280;1913;50.660;7.834;2023-05-25T12:11:05;154975.56;;;28.04;27.56
3796;BME280;1913;50.660;7.834;2023-05-25T12:13:30;155079.72;;;28.46;27.57
3796;BME280;1913;50.660;7.834;2023-05-25T12:15:56;154917.16;;;27.80;27.97
3796;BME280;1913;50.660;7.834;2023-05-25T12:18:26;154900.59;;;27.74;28.01
3796;BME280;1913;50.660;7.834;2023-05-25T12:20:52;154959.06;;;27.97;29.43
3796;BME280;1913;50.660;7.834;2023-05-25T12:23:17;155000.94;;;28.14;28.30
3796;BME280;1913;50.660;7.834;2023-05-25T12:25:43;154985.72;;;28.08;28.30
3796;BME280;1913;50.660;7.834;2023-05-25T12:28:12;154975.56;;;28.04;30.03
3796;BME280;1913;50.660;7.834;2023-05-25T12:30:39;154914.63;;;27.79;28.65
3796;BME280;1913;50.660;7.834;2023-05-25T12:33:05;154877.78;;;27.64;29.60
3796;BME280;1913;50.660;7.834;2023-05-25T12:35:45;154783.84;;;27.27;29.30
3796;BME280;1913;50.660;7.834;2023-05-25T12:38:12;154885.34;;;27.67;29.65
3796;BME280;1913;50.660;7.834;2023-05-25T12:40:39;154946.34;;;27.92;31.97
3796;BME280;1913;50.660;7.834;2023-05-25T12:43:05;154928.56;;;27.85;28.03
3796;BME280;1913;50.660;7.834;2023-05-25T12:45:31;154868.88;;;27.61;29.70
3796;BME280;1913;50.660;7.834;2023-05-25T12:47:57;154891.72;;;27.70;29.33
3796;BME280;1913;50.660;7.834;2023-05-25T12:50:22;154880.31;;;27.65;29.74
3796;BME280;1913;50.660;7.834;2023-05-25T12:52:48;154994.63;;;28.11;28.50
3796;BME280;1913;50.660;7.834;2023-05-25T12:58:00;154876.47;;;27.64;28.13
3796;BME280;1913;50.660;7.834;2023-05-25T13:00:32;154915.91;;;27.80;31.31
3796;BME280;1913;50.660;7.834;2023-05-25T13:02:58;154842.22;;;27.50;30.55
3796;BME280;1913;50.660;7.834;2023-05-25T13:05:25;154816.84;;;27.40;30.59
3796;BME280;1913;50.660;7.834;2023-05-25T13:07:53;154773.69;;;27.23;30.29
3796;BME280;1913;50.660;7.834;2023-05-25T13:10:19;154778.72;;;27.25;30.12
3796;BME280;1913;50.660;7.834;2023-05-25T13:12:45;154830.78;;;27.45;31.09
3796;BME280;1913;50.660;7.834;2023-05-25T13:15:12;154849.81;;;27.53;32.62
3796;BME280;1913;50.660;7.834;2023-05-25T13:17:40;154892.97;;;27.70;30.02
3796;BME280;1913;50.660;7.834;2023-05-25T13:20:06;154987.00;;;28.08;31.26
3796;BME280;1913;50.660;7.834;2023-05-25T13:22:32;154903.13;;;27.75;31.20
3796;BME280;1913;50.660;7.834;2023-05-25T13:24:57;154830.78;;;27.45;32.23
3796;BME280;1913;50.660;7.834;2023-05-25T13:27:23;154829.50;;;27.45;32.31